»·PEaware :: N628ST KSEA-KPSC

N628ST :: KSEA-KPSC

FLIGHT INFORMATION

Flight Status: Arrived
Operator: Privately registered:
United States
More flights under this callsign
Pilot: Rob O. (32758)
Aircraft: Cessna 525C Citation CJ4
(C25C)
More flights by this aircraft type
Origin: KSEA Seattle-Tacoma Intl
United States
Destination: KPSC Tri-Cities
United States
More flights between these airports :: More routes between these airports
Route: SEA V2 ELN V187 PSC
File this flight plan on PilotEdge
Remarks:
Altitude:
(Current/Filed)
17,000ft
Speed:
(Current/Filed)
280kts
Departed: 02-Sep-21 09:31 AM
Arrived: 02-Sep-21 10:09 AM
Distance/Time
Traveled:
150nm/0:37
Distance/Time
To Go:
Arrived

Flight Plot

Page will automatically refresh every two minutes.

Flight plan parsing failed; only flown route is shown


Map Options




Map Legend


Flown Route
Filed Route
Departure Airport
Arrival Airport
Navaid (VOR, NDB)
Fix

Horizontal Profiles

Position Reports

Time Latitude Longitude Heading Altitude Ground
Speed
02-Sep-21 09:11 47.456352 -122.303936 180 406ft 0kts
02-Sep-21 09:12 47.456352 -122.303936 180 406ft 0kts
02-Sep-21 09:13 47.456352 -122.303936 180 406ft 0kts
02-Sep-21 09:14 47.456352 -122.303936 180 406ft 0kts
02-Sep-21 09:15 47.456289 -122.304046 271 406ft 1kts
02-Sep-21 09:16 47.456444 -122.304124 20 406ft 0kts
02-Sep-21 09:17 47.456444 -122.304124 20 406ft 0kts
02-Sep-21 09:18 47.456444 -122.304124 20 406ft 0kts
02-Sep-21 09:19 47.456444 -122.304124 20 406ft 0kts
02-Sep-21 09:20 47.456444 -122.304124 20 406ft 0kts
02-Sep-21 09:21 47.456444 -122.304124 20 406ft 0kts
02-Sep-21 09:22 47.456444 -122.304124 20 406ft 0kts
02-Sep-21 09:23 47.456444 -122.304124 20 406ft 0kts
02-Sep-21 09:24 47.456444 -122.304124 20 406ft 0kts
02-Sep-21 09:25 47.456816 -122.304121 355 407ft 9kts
02-Sep-21 09:26 47.460453 -122.304958 0 418ft 26kts
02-Sep-21 09:27 47.463659 -122.306278 298 427ft 0kts
02-Sep-21 09:28 47.463659 -122.306278 298 427ft 0kts
02-Sep-21 09:29 47.463666 -122.306296 297 427ft 0kts
02-Sep-21 09:30 47.459947 -122.307821 180 416ft 99kts
02-Sep-21 09:31 47.406324 -122.310460 181 2343ft 237kts
02-Sep-21 09:32 47.335849 -122.314838 182 5547ft 261kts
02-Sep-21 09:33 47.267572 -122.287853 139 8693ft 274kts
02-Sep-21 09:34 47.208707 -122.210948 136 11511ft 290kts
02-Sep-21 09:35 47.191823 -122.108172 65 14090ft 292kts
02-Sep-21 09:36 47.225981 -121.999898 60 16932ft 288kts
02-Sep-21 09:37 47.270310 -121.882056 58 16974ft 363kts
02-Sep-21 09:38 47.319782 -121.749764 68 16945ft 356kts
02-Sep-21 09:39 47.293521 -121.615623 108 16948ft 342kts
02-Sep-21 09:40 47.263137 -121.477492 107 16950ft 381kts
02-Sep-21 09:41 47.228381 -121.327820 106 16942ft 390kts
02-Sep-21 09:42 47.193578 -121.176287 106 16940ft 392kts
02-Sep-21 09:43 47.158754 -121.026363 106 16922ft 382kts
02-Sep-21 09:44 47.124384 -120.879534 106 16929ft 378kts
02-Sep-21 09:45 47.090103 -120.734161 106 16930ft 376kts
02-Sep-21 09:46 47.055678 -120.589173 106 16916ft 375kts
02-Sep-21 09:47 47.021371 -120.445234 106 16927ft 374kts
02-Sep-21 09:48 46.991323 -120.299465 104 16919ft 373kts
02-Sep-21 09:49 46.960360 -120.154067 104 16931ft 373kts
02-Sep-21 09:50 46.929414 -120.009001 105 16000ft 368kts
02-Sep-21 09:51 46.899604 -119.875025 118 13289ft 332kts
02-Sep-21 09:52 46.832853 -119.789517 140 11015ft 301kts
02-Sep-21 09:53 46.770533 -119.713402 139 11036ft 286kts
02-Sep-21 09:54 46.709691 -119.640133 140 11043ft 289kts
02-Sep-21 09:55 46.643051 -119.560683 140 11042ft 328kts
02-Sep-21 09:56 46.570441 -119.473052 140 11039ft 348kts
02-Sep-21 09:57 46.497022 -119.385578 140 10772ft 320kts
02-Sep-21 09:58 46.449367 -119.295427 94 7577ft 278kts
02-Sep-21 09:59 46.444951 -119.189401 92 5014ft 252kts
02-Sep-21 10:00 46.440129 -119.084212 91 5026ft 268kts
02-Sep-21 10:01 46.435925 -118.987028 91 4791ft 227kts
02-Sep-21 10:02 46.425406 -118.896709 137 3112ft 234kts
02-Sep-21 10:03 46.388836 -118.928620 242 2306ft 158kts
02-Sep-21 10:04 46.364934 -118.972893 229 2294ft 151kts
02-Sep-21 10:05 46.334641 -119.017200 226 2175ft 160kts
02-Sep-21 10:06 46.308196 -119.056518 226 1502ft 121kts
02-Sep-21 10:07 46.284652 -119.091253 226 855ft 120kts
02-Sep-21 10:08 46.265340 -119.118820 133 403ft 8kts
02-Sep-21 10:09 46.264306 -119.117287 136 401ft 13kts
02-Sep-21 10:10 46.262242 -119.112043 68 403ft 20kts
02-Sep-21 10:11 46.262363 -119.106403 160 404ft 15kts
02-Sep-21 10:12 46.261570 -119.104426 71 404ft 0kts

Navigation Log

Ident Type
Flight plan parsing failed, navigation log unavailable